sensor_id;sensor_type;location;lat;lon;timestamp;temperature;humidity
35746;DHT22;21870;42.812;74.628;2022-11-15T00:00:29;6.60;99.90
35746;DHT22;21870;42.812;74.628;2022-11-15T00:02:55;6.50;99.90
35746;DHT22;21870;42.812;74.628;2022-11-15T00:05:21;6.50;99.90
35746;DHT22;21870;42.812;74.628;2022-11-15T00:07:47;6.40;99.90
35746;DHT22;21870;42.812;74.628;2022-11-15T00:10:14;6.30;99.90
35746;DHT22;21870;42.812;74.628;2022-11-15T00:12:40;6.20;99.90
35746;DHT22;21870;42.812;74.628;2022-11-15T00:15:06;6.30;99.90
35746;DHT22;21870;42.812;74.628;2022-11-15T00:17:32;6.40;99.90
35746;DHT22;21870;42.812;74.628;2022-11-15T00:19:58;6.20;99.90
35746;DHT22;21870;42.812;74.628;2022-11-15T00:22:25;6.10;99.90
35746;DHT22;21870;42.812;74.628;2022-11-15T00:24:56;6.10;99.90
35746;DHT22;21870;42.812;74.628;2022-11-15T00:27:22;6.00;99.90
35746;DHT22;21870;42.812;74.628;2022-11-15T00:29:48;5.90;99.90
35746;DHT22;21870;42.812;74.628;2022-11-15T00:32:14;5.80;99.90
35746;DHT22;21870;42.812;74.628;2022-11-15T00:34:40;5.80;99.90
35746;DHT22;21870;42.812;74.628;2022-11-15T00:37:06;5.80;99.90
35746;DHT22;21870;42.812;74.628;2022-11-15T00:39:32;5.70;99.90
35746;DHT22;21870;42.812;74.628;2022-11-15T00:41:58;5.70;99.90
35746;DHT22;21870;42.812;74.628;2022-11-15T00:44:24;5.60;99.90
35746;DHT22;21870;42.812;74.628;2022-11-15T00:46:51;5.60;99.90
35746;DHT22;21870;42.812;74.628;2022-11-15T00:49:17;5.60;99.90
35746;DHT22;21870;42.812;74.628;2022-11-15T00:51:43;5.60;99.90
35746;DHT22;21870;42.812;74.628;2022-11-15T00:54:09;5.60;99.90
35746;DHT22;21870;42.812;74.628;2022-11-15T00:56:35;5.60;99.90
35746;DHT22;21870;42.812;74.628;2022-11-15T00:59:01;5.60;99.90
35746;DHT22;21870;42.812;74.628;2022-11-15T01:01:27;5.60;99.90
35746;DHT22;21870;42.812;74.628;2022-11-15T01:03:53;5.60;99.90
35746;DHT22;21870;42.812;74.628;2022-11-15T01:06:19;5.60;99.90
35746;DHT22;21870;42.812;74.628;2022-11-15T01:08:45;5.60;99.90
35746;DHT22;21870;42.812;74.628;2022-11-15T01:11:12;5.70;99.90
35746;DHT22;21870;42.812;74.628;2022-11-15T01:13:39;5.80;99.90
35746;DHT22;21870;42.812;74.628;2022-11-15T01:16:16;5.90;99.90
35746;DHT22;21870;42.812;74.628;2022-11-15T01:18:44;6.00;99.90
35746;DHT22;21870;42.812;74.628;2022-11-15T01:21:13;6.00;99.90
35746;DHT22;21870;42.812;74.628;2022-11-15T01:23:39;6.10;99.90
35746;DHT22;21870;42.812;74.628;2022-11-15T01:26:08;6.10;99.90
35746;DHT22;21870;42.812;74.628;2022-11-15T01:28:38;6.10;99.90
35746;DHT22;21870;42.812;74.628;2022-11-15T01:31:09;6.10;99.90
35746;DHT22;21870;42.812;74.628;2022-11-15T01:33:36;6.20;99.90
35746;DHT22;21870;42.812;74.628;2022-11-15T01:36:13;6.20;99.90
35746;DHT22;21870;42.812;74.628;2022-11-15T01:38:39;6.20;99.90
35746;DHT22;21870;42.812;74.628;2022-11-15T01:41:05;6.30;99.90
35746;DHT22;21870;42.812;74.628;2022-11-15T01:43:34;6.30;99.90
35746;DHT22;21870;42.812;74.628;2022-11-15T01:46:22;6.40;99.90
35746;DHT22;21870;42.812;74.628;2022-11-15T01:48:52;6.50;99.90
35746;DHT22;21870;42.812;74.628;2022-11-15T01:51:21;6.50;99.90
35746;DHT22;21870;42.812;74.628;2022-11-15T01:53:52;6.50;99.90
35746;DHT22;21870;42.812;74.628;2022-11-15T01:56:25;6.50;99.90
35746;DHT22;21870;42.812;74.628;2022-11-15T01:58:55;6.50;99.90
35746;DHT22;21870;42.812;74.628;2022-11-15T02:01:24;6.60;99.90
35746;DHT22;21870;42.812;74.628;2022-11-15T02:04:18;6.70;99.90
35746;DHT22;21870;42.812;74.628;2022-11-15T02:06:47;6.70;99.90
35746;DHT22;21870;42.812;74.628;2022-11-15T02:09:14;6.70;99.90
35746;DHT22;21870;42.812;74.628;2022-11-15T02:11:41;6.70;99.90
35746;DHT22;21870;42.812;74.628;2022-11-15T02:14:09;6.70;99.90
35746;DHT22;21870;42.812;74.628;2022-11-15T02:22:22;6.80;99.90
35746;DHT22;21870;42.812;74.628;2022-11-15T02:25:21;6.80;99.90
35746;DHT22;21870;42.812;74.628;2022-11-15T02:28:09;6.90;99.90
35746;DHT22;21870;42.812;74.628;2022-11-15T02:30:49;6.90;99.90
35746;DHT22;21870;42.812;74.628;2022-11-15T02:33:43;6.90;99.90
35746;DHT22;21870;42.812;74.628;2022-11-15T02:36:23;7.00;99.90
35746;DHT22;21870;42.812;74.628;2022-11-15T02:38:59;7.00;99.90
35746;DHT22;21870;42.812;74.628;2022-11-15T02:41:39;7.10;99.90
35746;DHT22;21870;42.812;74.628;2022-11-15T02:44:21;7.10;99.90
35746;DHT22;21870;42.812;74.628;2022-11-15T02:47:02;7.20;99.90
35746;DHT22;21870;42.812;74.628;2022-11-15T02:49:50;7.20;99.90
35746;DHT22;21870;42.812;74.628;2022-11-15T02:52:19;7.20;99.90
35746;DHT22;21870;42.812;74.628;2022-11-15T02:54:59;7.30;99.90
35746;DHT22;21870;42.812;74.628;2022-11-15T02:58:01;7.30;99.90
35746;DHT22;21870;42.812;74.628;2022-11-15T03:01:10;7.40;99.90
35746;DHT22;21870;42.812;74.628;2022-11-15T03:03:46;7.40;99.90
35746;DHT22;21870;42.812;74.628;2022-11-15T03:06:23;7.50;99.90
35746;DHT22;21870;42.812;74.628;2022-11-15T03:11:21;7.50;99.90
35746;DHT22;21870;42.812;74.628;2022-11-15T03:14:25;7.60;99.90
35746;DHT22;21870;42.812;74.628;2022-11-15T03:17:08;7.50;99.90
35746;DHT22;21870;42.812;74.628;2022-11-15T03:19:56;7.60;99.90
35746;DHT22;21870;42.812;74.628;2022-11-15T03:22:25;7.60;99.90
35746;DHT22;21870;42.812;74.628;2022-11-15T03:25:05;7.70;99.90
35746;DHT22;21870;42.812;74.628;2022-11-15T03:27:40;7.70;99.90
35746;DHT22;21870;42.812;74.628;2022-11-15T03:30:07;7.70;99.90
35746;DHT22;21870;42.812;74.628;2022-11-15T03:32:47;7.70;99.90
35746;DHT22;21870;42.812;74.628;2022-11-15T03:35:24;7.70;99.90
35746;DHT22;21870;42.812;74.628;2022-11-15T03:38:08;7.70;99.90
35746;DHT22;21870;42.812;74.628;2022-11-15T03:40:42;7.80;99.90
35746;DHT22;21870;42.812;74.628;2022-11-15T03:45:56;7.70;99.90
35746;DHT22;21870;42.812;74.628;2022-11-15T03:48:27;7.80;99.90
35746;DHT22;21870;42.812;74.628;2022-11-15T03:50:56;7.80;99.90
35746;DHT22;21870;42.812;74.628;2022-11-15T03:53:22;7.80;99.90
35746;DHT22;21870;42.812;74.628;2022-11-15T03:55:48;7.80;99.90
35746;DHT22;21870;42.812;74.628;2022-11-15T03:58:21;7.90;99.90
35746;DHT22;21870;42.812;74.628;2022-11-15T04:00:47;8.00;99.90
35746;DHT22;21870;42.812;74.628;2022-11-15T04:03:13;8.00;99.90
35746;DHT22;21870;42.812;74.628;2022-11-15T04:05:39;8.00;99.90
35746;DHT22;21870;42.812;74.628;2022-11-15T04:08:05;8.10;99.90
35746;DHT22;21870;42.812;74.628;2022-11-15T04:10:31;8.10;99.90
35746;DHT22;21870;42.812;74.628;2022-11-15T04:12:57;8.20;99.90
35746;DHT22;21870;42.812;74.628;2022-11-15T04:15:23;8.20;99.90
35746;DHT22;21870;42.812;74.628;2022-11-15T04:17:54;8.30;99.90
35746;DHT22;21870;42.812;74.628;2022-11-15T04:20:23;8.30;99.90
35746;DHT22;21870;42.812;74.628;2022-11-15T04:23:11;8.30;99.90
35746;DHT22;21870;42.812;74.628;2022-11-15T04:25:59;8.30;99.90
35746;DHT22;21870;42.812;74.628;2022-11-15T04:28:25;8.30;99.90
35746;DHT22;21870;42.812;74.628;2022-11-15T04:30:52;8.40;99.90
35746;DHT22;21870;42.812;74.628;2022-11-15T04:33:18;8.50;99.90
35746;DHT22;21870;42.812;74.628;2022-11-15T04:35:44;8.50;99.90
35746;DHT22;21870;42.812;74.628;2022-11-15T04:38:30;8.50;99.90
35746;DHT22;21870;42.812;74.628;2022-11-15T04:40:57;8.60;99.90
35746;DHT22;21870;42.812;74.628;2022-11-15T04:43:23;8.60;99.90
35746;DHT22;21870;42.812;74.628;2022-11-15T04:45:49;8.60;99.90
35746;DHT22;21870;42.812;74.628;2022-11-15T04:48:15;8.70;99.90
35746;DHT22;21870;42.812;74.628;2022-11-15T04:50:41;8.70;99.90
35746;DHT22;21870;42.812;74.628;2022-11-15T04:53:07;8.60;99.90
35746;DHT22;21870;42.812;74.628;2022-11-15T04:55:33;8.70;99.90
35746;DHT22;21870;42.812;74.628;2022-11-15T04:58:00;8.80;99.90
35746;DHT22;21870;42.812;74.628;2022-11-15T05:00:28;8.80;99.90
35746;DHT22;21870;42.812;74.628;2022-11-15T05:02:56;8.90;99.90
35746;DHT22;21870;42.812;74.628;2022-11-15T05:05:40;8.90;99.90
35746;DHT22;21870;42.812;74.628;2022-11-15T05:08:06;9.00;99.90
35746;DHT22;21870;42.812;74.628;2022-11-15T05:10:32;9.00;99.90
35746;DHT22;21870;42.812;74.628;2022-11-15T05:12:58;9.10;99.90
35746;DHT22;21870;42.812;74.628;2022-11-15T05:15:25;9.10;99.90
35746;DHT22;21870;42.812;74.628;2022-11-15T05:17:51;9.20;99.90
35746;DHT22;21870;42.812;74.628;2022-11-15T05:20:17;9.20;99.90
35746;DHT22;21870;42.812;74.628;2022-11-15T05:22:43;9.30;99.90
35746;DHT22;21870;42.812;74.628;2022-11-15T05:25:09;9.30;99.90
35746;DHT22;21870;42.812;74.628;2022-11-15T05:27:35;9.40;99.90
35746;DHT22;21870;42.812;74.628;2022-11-15T05:30:01;9.60;99.90
35746;DHT22;21870;42.812;74.628;2022-11-15T05:32:28;9.70;99.90
35746;DHT22;21870;42.812;74.628;2022-11-15T05:34:55;9.80;99.90
35746;DHT22;21870;42.812;74.628;2022-11-15T05:37:21;9.80;99.90
35746;DHT22;21870;42.812;74.628;2022-11-15T05:39:47;9.80;99.90
35746;DHT22;21870;42.812;74.628;2022-11-15T05:42:14;9.90;99.90
35746;DHT22;21870;42.812;74.628;2022-11-15T05:44:45;10.00;99.90
35746;DHT22;21870;42.812;74.628;2022-11-15T05:47:16;10.20;99.90
35746;DHT22;21870;42.812;74.628;2022-11-15T05:49:43;10.30;99.90
35746;DHT22;21870;42.812;74.628;2022-11-15T05:52:12;10.50;99.90
35746;DHT22;21870;42.812;74.628;2022-11-15T05:54:39;10.60;99.90
35746;DHT22;21870;42.812;74.628;2022-11-15T05:57:06;10.90;99.90
35746;DHT22;21870;42.812;74.628;2022-11-15T05:59:32;11.00;99.90
35746;DHT22;21870;42.812;74.628;2022-11-15T06:01:59;11.20;99.90
35746;DHT22;21870;42.812;74.628;2022-11-15T06:04:25;11.30;99.90
35746;DHT22;21870;42.812;74.628;2022-11-15T06:06:51;11.50;99.90
35746;DHT22;21870;42.812;74.628;2022-11-15T06:09:17;11.60;99.90
35746;DHT22;21870;42.812;74.628;2022-11-15T06:11:43;11.70;99.90
35746;DHT22;21870;42.812;74.628;2022-11-15T06:14:09;11.90;99.90
35746;DHT22;21870;42.812;74.628;2022-11-15T06:16:35;11.90;99.90
35746;DHT22;21870;42.812;74.628;2022-11-15T06:19:02;11.80;99.90
35746;DHT22;21870;42.812;74.628;2022-11-15T06:21:28;12.00;99.90
35746;DHT22;21870;42.812;74.628;2022-11-15T06:23:54;12.10;99.90
35746;DHT22;21870;42.812;74.628;2022-11-15T06:26:21;12.30;99.90
35746;DHT22;21870;42.812;74.628;2022-11-15T06:28:47;12.40;99.90
35746;DHT22;21870;42.812;74.628;2022-11-15T06:31:13;12.30;99.90
35746;DHT22;21870;42.812;74.628;2022-11-15T06:33:39;12.50;99.90
35746;DHT22;21870;42.812;74.628;2022-11-15T06:36:08;12.80;99.90
35746;DHT22;21870;42.812;74.628;2022-11-15T06:38:35;12.80;99.90
35746;DHT22;21870;42.812;74.628;2022-11-15T06:41:06;12.80;99.90
35746;DHT22;21870;42.812;74.628;2022-11-15T06:43:33;12.90;99.90
35746;DHT22;21870;42.812;74.628;2022-11-15T06:46:00;13.00;99.90
35746;DHT22;21870;42.812;74.628;2022-11-15T06:48:27;13.10;99.90
35746;DHT22;21870;42.812;74.628;2022-11-15T06:50:55;13.10;99.90
35746;DHT22;21870;42.812;74.628;2022-11-15T06:53:21;13.00;99.90
35746;DHT22;21870;42.812;74.628;2022-11-15T06:55:47;12.90;99.90
35746;DHT22;21870;42.812;74.628;2022-11-15T06:58:14;12.80;99.90
35746;DHT22;21870;42.812;74.628;2022-11-15T07:00:40;13.00;99.90
35746;DHT22;21870;42.812;74.628;2022-11-15T07:03:06;13.10;99.90
35746;DHT22;21870;42.812;74.628;2022-11-15T07:05:33;13.10;99.90
35746;DHT22;21870;42.812;74.628;2022-11-15T07:07:59;12.80;99.90
35746;DHT22;21870;42.812;74.628;2022-11-15T07:10:26;12.90;99.90
35746;DHT22;21870;42.812;74.628;2022-11-15T07:12:53;12.90;99.90
35746;DHT22;21870;42.812;74.628;2022-11-15T07:15:24;12.70;99.90
35746;DHT22;21870;42.812;74.628;2022-11-15T07:17:51;12.70;99.90
35746;DHT22;21870;42.812;74.628;2022-11-15T07:20:18;12.70;99.90
35746;DHT22;21870;42.812;74.628;2022-11-15T07:22:44;12.80;99.90
35746;DHT22;21870;42.812;74.628;2022-11-15T07:25:13;12.80;99.90
35746;DHT22;21870;42.812;74.628;2022-11-15T07:27:39;12.90;99.90
35746;DHT22;21870;42.812;74.628;2022-11-15T07:30:05;12.90;99.90
35746;DHT22;21870;42.812;74.628;2022-11-15T07:32:32;12.90;99.90
35746;DHT22;21870;42.812;74.628;2022-11-15T07:34:58;12.90;99.90
35746;DHT22;21870;42.812;74.628;2022-11-15T07:37:24;12.70;99.90
35746;DHT22;21870;42.812;74.628;2022-11-15T07:39:50;12.60;99.90
35746;DHT22;21870;42.812;74.628;2022-11-15T07:42:16;12.60;99.90
35746;DHT22;21870;42.812;74.628;2022-11-15T07:45:00;12.70;99.90
35746;DHT22;21870;42.812;74.628;2022-11-15T07:47:28;12.60;99.90
35746;DHT22;21870;42.812;74.628;2022-11-15T07:49:54;12.60;99.90
35746;DHT22;21870;42.812;74.628;2022-11-15T07:52:21;12.40;99.90
35746;DHT22;21870;42.812;74.628;2022-11-15T07:54:47;12.40;99.90
35746;DHT22;21870;42.812;74.628;2022-11-15T07:57:13;12.50;99.90
35746;DHT22;21870;42.812;74.628;2022-11-15T07:59:39;12.40;99.90
35746;DHT22;21870;42.812;74.628;2022-11-15T08:02:05;12.40;99.90
35746;DHT22;21870;42.812;74.628;2022-11-15T08:04:31;12.40;99.90
35746;DHT22;21870;42.812;74.628;2022-11-15T08:06:57;12.30;99.90
35746;DHT22;21870;42.812;74.628;2022-11-15T08:09:24;12.10;99.90
35746;DHT22;21870;42.812;74.628;2022-11-15T08:11:50;12.00;99.90
35746;DHT22;21870;42.812;74.628;2022-11-15T08:14:16;11.90;99.90
35746;DHT22;21870;42.812;74.628;2022-11-15T08:16:42;11.60;99.90
35746;DHT22;21870;42.812;74.628;2022-11-15T08:19:08;11.40;99.90
35746;DHT22;21870;42.812;74.628;2022-11-15T08:21:34;11.30;99.90
35746;DHT22;21870;42.812;74.628;2022-11-15T08:24:00;11.30;99.90
35746;DHT22;21870;42.812;74.628;2022-11-15T08:26:27;11.20;99.90
35746;DHT22;21870;42.812;74.628;2022-11-15T08:28:55;11.20;99.90
35746;DHT22;21870;42.812;74.628;2022-11-15T08:31:21;11.20;99.90
35746;DHT22;21870;42.812;74.628;2022-11-15T08:33:47;11.40;99.90
35746;DHT22;21870;42.812;74.628;2022-11-15T08:36:15;11.30;99.90
35746;DHT22;21870;42.812;74.628;2022-11-15T08:38:42;11.10;99.90
35746;DHT22;21870;42.812;74.628;2022-11-15T08:41:21;10.90;99.90
35746;DHT22;21870;42.812;74.628;2022-11-15T08:43:50;10.50;99.90
35746;DHT22;21870;42.812;74.628;2022-11-15T08:46:16;10.00;99.90
35746;DHT22;21870;42.812;74.628;2022-11-15T08:48:42;9.80;99.90
35746;DHT22;21870;42.812;74.628;2022-11-15T08:51:08;9.50;99.90
35746;DHT22;21870;42.812;74.628;2022-11-15T08:53:34;9.30;99.90
35746;DHT22;21870;42.812;74.628;2022-11-15T08:56:00;9.10;99.90
35746;DHT22;21870;42.812;74.628;2022-11-15T08:58:27;8.70;99.90
35746;DHT22;21870;42.812;74.628;2022-11-15T09:00:53;8.60;99.90
35746;DHT22;21870;42.812;74.628;2022-11-15T09:03:22;8.30;99.90
35746;DHT22;21870;42.812;74.628;2022-11-15T09:05:48;8.20;99.90
35746;DHT22;21870;42.812;74.628;2022-11-15T09:08:14;8.20;99.90
35746;DHT22;21870;42.812;74.628;2022-11-15T09:10:40;8.10;99.90
35746;DHT22;21870;42.812;74.628;2022-11-15T09:13:06;8.00;99.90
35746;DHT22;21870;42.812;74.628;2022-11-15T09:15:32;7.70;99.90
35746;DHT22;21870;42.812;74.628;2022-11-15T09:17:59;7.70;99.90
35746;DHT22;21870;42.812;74.628;2022-11-15T09:20:25;7.60;99.90
35746;DHT22;21870;42.812;74.628;2022-11-15T09:22:51;7.40;99.90
35746;DHT22;21870;42.812;74.628;2022-11-15T09:25:17;7.20;99.90
35746;DHT22;21870;42.812;74.628;2022-11-15T09:27:43;7.20;99.90
35746;DHT22;21870;42.812;74.628;2022-11-15T09:30:09;7.20;99.90
35746;DHT22;21870;42.812;74.628;2022-11-15T09:32:36;7.10;99.90
35746;DHT22;21870;42.812;74.628;2022-11-15T09:35:02;6.90;99.90
35746;DHT22;21870;42.812;74.628;2022-11-15T09:37:28;7.00;99.90
35746;DHT22;21870;42.812;74.628;2022-11-15T09:39:54;7.10;99.90
35746;DHT22;21870;42.812;74.628;2022-11-15T09:42:48;7.10;99.90
35746;DHT22;21870;42.812;74.628;2022-11-15T09:45:26;7.10;99.90
35746;DHT22;21870;42.812;74.628;2022-11-15T09:49:11;7.10;99.90
35746;DHT22;21870;42.812;74.628;2022-11-15T09:51:12;7.00;99.90
35746;DHT22;21870;42.812;74.628;2022-11-15T09:54:04;7.00;99.90
35746;DHT22;21870;42.812;74.628;2022-11-15T09:56:33;7.10;99.90
35746;DHT22;21870;42.812;74.628;2022-11-15T10:02:03;7.00;99.90
35746;DHT22;21870;42.812;74.628;2022-11-15T10:04:31;6.80;99.90
35746;DHT22;21870;42.812;74.628;2022-11-15T10:12:17;6.80;99.90
35746;DHT22;21870;42.812;74.628;2022-11-15T10:14:45;6.70;99.90
35746;DHT22;21870;42.812;74.628;2022-11-15T10:22:56;6.70;99.90
35746;DHT22;21870;42.812;74.628;2022-11-15T10:25:28;6.60;99.90
35746;DHT22;21870;42.812;74.628;2022-11-15T10:28:11;6.50;99.90
35746;DHT22;21870;42.812;74.628;2022-11-15T10:30:41;6.40;99.90
35746;DHT22;21870;42.812;74.628;2022-11-15T10:35:38;6.20;99.90
35746;DHT22;21870;42.812;74.628;2022-11-15T10:38:07;6.30;99.90
35746;DHT22;21870;42.812;74.628;2022-11-15T10:40:33;6.40;99.90
35746;DHT22;21870;42.812;74.628;2022-11-15T10:45:35;6.30;99.90
35746;DHT22;21870;42.812;74.628;2022-11-15T10:50:44;6.40;99.90
35746;DHT22;21870;42.812;74.628;2022-11-15T10:55:59;6.30;99.90
35746;DHT22;21870;42.812;74.628;2022-11-15T10:58:44;6.40;99.90
35746;DHT22;21870;42.812;74.628;2022-11-15T11:01:27;6.40;99.90
35746;DHT22;21870;42.812;74.628;2022-11-15T11:06:51;6.40;99.90
35746;DHT22;21870;42.812;74.628;2022-11-15T11:11:52;6.40;99.90
35746;DHT22;21870;42.812;74.628;2022-11-15T11:14:24;6.30;99.90
35746;DHT22;21870;42.812;74.628;2022-11-15T11:24:52;6.20;99.90
35746;DHT22;21870;42.812;74.628;2022-11-15T11:35:24;6.20;99.90
35746;DHT22;21870;42.812;74.628;2022-11-15T11:43:58;6.30;99.90
35746;DHT22;21870;42.812;74.628;2022-11-15T11:49:09;6.30;99.90
35746;DHT22;21870;42.812;74.628;2022-11-15T11:51:43;6.40;99.90
35746;DHT22;21870;42.812;74.628;2022-11-15T11:54:19;6.30;99.90
35746;DHT22;21870;42.812;74.628;2022-11-15T11:56:47;6.30;99.90
35746;DHT22;21870;42.812;74.628;2022-11-15T12:01:44;6.20;99.90
35746;DHT22;21870;42.812;74.628;2022-11-15T12:04:35;6.30;99.90
35746;DHT22;21870;42.812;74.628;2022-11-15T12:07:25;6.40;99.90
35746;DHT22;21870;42.812;74.628;2022-11-15T12:16:05;6.50;99.90
35746;DHT22;21870;42.812;74.628;2022-11-15T12:18:33;6.50;99.90
35746;DHT22;21870;42.812;74.628;2022-11-15T12:23:59;6.50;99.90
35746;DHT22;21870;42.812;74.628;2022-11-15T12:26:30;6.50;99.90
35746;DHT22;21870;42.812;74.628;2022-11-15T12:29:05;6.50;99.90
35746;DHT22;21870;42.812;74.628;2022-11-15T12:31:39;6.60;99.90
35746;DHT22;21870;42.812;74.628;2022-11-15T12:34:30;6.60;99.90
35746;DHT22;21870;42.812;74.628;2022-11-15T12:37:00;6.60;99.90
35746;DHT22;21870;42.812;74.628;2022-11-15T12:40:13;6.50;99.90
35746;DHT22;21870;42.812;74.628;2022-11-15T12:43:35;6.50;99.90
35746;DHT22;21870;42.812;74.628;2022-11-15T12:45:49;6.60;99.90
35746;DHT22;21870;42.812;74.628;2022-11-15T12:53:32;6.70;99.90
35746;DHT22;21870;42.812;74.628;2022-11-15T12:58:56;6.70;99.90
35746;DHT22;21870;42.812;74.628;2022-11-15T13:06:59;6.60;99.90
35746;DHT22;21870;42.812;74.628;2022-11-15T13:11:57;6.60;99.90
35746;DHT22;21870;42.812;74.628;2022-11-15T13:14:46;6.50;99.90
35746;DHT22;21870;42.812;74.628;2022-11-15T13:19:53;6.60;99.90
35746;DHT22;21870;42.812;74.628;2022-11-15T13:22:19;6.60;99.90
35746;DHT22;21870;42.812;74.628;2022-11-15T13:25:04;6.60;99.90
35746;DHT22;21870;42.812;74.628;2022-11-15T13:27:40;6.60;99.90
35746;DHT22;21870;42.812;74.628;2022-11-15T13:30:27;6.70;99.90
35746;DHT22;21870;42.812;74.628;2022-11-15T13:32:54;6.60;99.90
35746;DHT22;21870;42.812;74.628;2022-11-15T13:35:23;6.80;99.90
35746;DHT22;21870;42.812;74.628;2022-11-15T13:37:50;6.70;99.90
35746;DHT22;21870;42.812;74.628;2022-11-15T13:42:43;6.70;99.90
35746;DHT22;21870;42.812;74.628;2022-11-15T13:45:13;6.70;99.90
35746;DHT22;21870;42.812;74.628;2022-11-15T13:47:40;6.80;99.90
35746;DHT22;21870;42.812;74.628;2022-11-15T13:50:11;6.80;99.90
35746;DHT22;21870;42.812;74.628;2022-11-15T13:52:39;6.80;99.90
35746;DHT22;21870;42.812;74.628;2022-11-15T13:55:18;6.90;99.90
35746;DHT22;21870;42.812;74.628;2022-11-15T13:58:00;6.90;99.90
35746;DHT22;21870;42.812;74.628;2022-11-15T14:03:18;6.90;99.90
35746;DHT22;21870;42.812;74.628;2022-11-15T14:06:09;6.90;99.90
35746;DHT22;21870;42.812;74.628;2022-11-15T14:11:26;6.90;99.90
35746;DHT22;21870;42.812;74.628;2022-11-15T14:16:39;6.70;99.90
35746;DHT22;21870;42.812;74.628;2022-11-15T14:19:08;6.70;99.90
35746;DHT22;21870;42.812;74.628;2022-11-15T14:21:35;6.60;99.90
35746;DHT22;21870;42.812;74.628;2022-11-15T14:24:21;6.50;99.90
35746;DHT22;21870;42.812;74.628;2022-11-15T14:26:47;6.50;99.90
35746;DHT22;21870;42.812;74.628;2022-11-15T14:29:28;6.40;99.90
35746;DHT22;21870;42.812;74.628;2022-11-15T14:32:12;6.50;99.90
35746;DHT22;21870;42.812;74.628;2022-11-15T14:34:38;6.50;99.90
35746;DHT22;21870;42.812;74.628;2022-11-15T14:37:04;6.40;99.90
35746;DHT22;21870;42.812;74.628;2022-11-15T14:39:30;6.50;99.90
35746;DHT22;21870;42.812;74.628;2022-11-15T14:41:56;6.50;99.90
35746;DHT22;21870;42.812;74.628;2022-11-15T14:44:23;6.40;99.90
35746;DHT22;21870;42.812;74.628;2022-11-15T14:46:49;6.40;99.90
35746;DHT22;21870;42.812;74.628;2022-11-15T14:49:15;6.50;99.90
35746;DHT22;21870;42.812;74.628;2022-11-15T14:51:41;6.50;99.90
35746;DHT22;21870;42.812;74.628;2022-11-15T14:54:10;6.40;99.90
35746;DHT22;21870;42.812;74.628;2022-11-15T14:56:36;6.50;99.90
35746;DHT22;21870;42.812;74.628;2022-11-15T14:59:02;6.50;99.90
35746;DHT22;21870;42.812;74.628;2022-11-15T15:01:28;6.50;99.90
35746;DHT22;21870;42.812;74.628;2022-11-15T15:03:55;6.40;99.90
35746;DHT22;21870;42.812;74.628;2022-11-15T15:06:25;6.30;99.90
35746;DHT22;21870;42.812;74.628;2022-11-15T15:08:51;6.40;99.90
35746;DHT22;21870;42.812;74.628;2022-11-15T15:11:23;6.50;99.90
35746;DHT22;21870;42.812;74.628;2022-11-15T15:13:50;6.50;99.90
35746;DHT22;21870;42.812;74.628;2022-11-15T15:16:16;6.50;99.90
35746;DHT22;21870;42.812;74.628;2022-11-15T15:18:42;6.50;99.90
35746;DHT22;21870;42.812;74.628;2022-11-15T15:21:35;6.40;99.90
35746;DHT22;21870;42.812;74.628;2022-11-15T15:24:01;6.40;99.90
35746;DHT22;21870;42.812;74.628;2022-11-15T15:26:27;6.30;99.90
35746;DHT22;21870;42.812;74.628;2022-11-15T15:28:53;6.40;99.90
35746;DHT22;21870;42.812;74.628;2022-11-15T15:31:19;6.40;99.90
35746;DHT22;21870;42.812;74.628;2022-11-15T15:33:46;6.40;99.90
35746;DHT22;21870;42.812;74.628;2022-11-15T15:36:13;6.50;99.90
35746;DHT22;21870;42.812;74.628;2022-11-15T15:38:40;6.50;99.90
35746;DHT22;21870;42.812;74.628;2022-11-15T15:41:14;6.30;99.90
35746;DHT22;21870;42.812;74.628;2022-11-15T15:43:40;6.10;99.90
35746;DHT22;21870;42.812;74.628;2022-11-15T15:46:14;6.00;99.90
35746;DHT22;21870;42.812;74.628;2022-11-15T15:48:41;5.90;99.90
35746;DHT22;21870;42.812;74.628;2022-11-15T15:51:07;6.00;99.90
35746;DHT22;21870;42.812;74.628;2022-11-15T15:53:33;6.00;99.90
35746;DHT22;21870;42.812;74.628;2022-11-15T15:55:59;6.00;99.90
35746;DHT22;21870;42.812;74.628;2022-11-15T15:58:25;5.90;99.90
35746;DHT22;21870;42.812;74.628;2022-11-15T16:00:52;6.00;99.90
35746;DHT22;21870;42.812;74.628;2022-11-15T16:03:18;6.00;99.90
35746;DHT22;21870;42.812;74.628;2022-11-15T16:05:44;6.00;99.90
35746;DHT22;21870;42.812;74.628;2022-11-15T16:08:20;6.10;99.90
35746;DHT22;21870;42.812;74.628;2022-11-15T16:10:47;6.00;99.90
35746;DHT22;21870;42.812;74.628;2022-11-15T16:13:14;5.90;99.90
35746;DHT22;21870;42.812;74.628;2022-11-15T16:15:41;5.90;99.90
35746;DHT22;21870;42.812;74.628;2022-11-15T16:18:16;5.90;99.90
35746;DHT22;21870;42.812;74.628;2022-11-15T16:20:44;6.00;99.90
35746;DHT22;21870;42.812;74.628;2022-11-15T16:23:14;5.90;99.90
35746;DHT22;21870;42.812;74.628;2022-11-15T16:25:54;6.00;99.90
35746;DHT22;21870;42.812;74.628;2022-11-15T16:28:29;6.10;99.90
35746;DHT22;21870;42.812;74.628;2022-11-15T16:31:04;6.00;99.90
35746;DHT22;21870;42.812;74.628;2022-11-15T16:33:31;6.00;99.90
35746;DHT22;21870;42.812;74.628;2022-11-15T16:35:57;6.10;99.90
35746;DHT22;21870;42.812;74.628;2022-11-15T16:38:23;6.10;99.90
35746;DHT22;21870;42.812;74.628;2022-11-15T16:40:49;6.00;99.90
35746;DHT22;21870;42.812;74.628;2022-11-15T16:43:18;5.90;99.90
35746;DHT22;21870;42.812;74.628;2022-11-15T16:45:44;5.90;99.90
35746;DHT22;21870;42.812;74.628;2022-11-15T16:48:26;5.80;99.90
35746;DHT22;21870;42.812;74.628;2022-11-15T16:50:56;5.80;99.90
35746;DHT22;21870;42.812;74.628;2022-11-15T16:53:23;5.80;99.90
35746;DHT22;21870;42.812;74.628;2022-11-15T16:55:49;5.80;99.90
35746;DHT22;21870;42.812;74.628;2022-11-15T16:58:15;5.90;99.90
35746;DHT22;21870;42.812;74.628;2022-11-15T17:00:41;6.00;99.90
35746;DHT22;21870;42.812;74.628;2022-11-15T17:03:07;6.00;99.90
35746;DHT22;21870;42.812;74.628;2022-11-15T17:05:34;6.00;99.90
35746;DHT22;21870;42.812;74.628;2022-11-15T17:08:00;6.00;99.90
35746;DHT22;21870;42.812;74.628;2022-11-15T17:10:26;6.00;99.90
35746;DHT22;21870;42.812;74.628;2022-11-15T17:12:53;6.10;99.90
35746;DHT22;21870;42.812;74.628;2022-11-15T17:15:20;6.00;99.90
35746;DHT22;21870;42.812;74.628;2022-11-15T17:17:53;5.90;99.90
35746;DHT22;21870;42.812;74.628;2022-11-15T17:20:21;6.00;99.90
35746;DHT22;21870;42.812;74.628;2022-11-15T17:22:48;6.00;99.90
35746;DHT22;21870;42.812;74.628;2022-11-15T17:25:14;6.10;99.90
35746;DHT22;21870;42.812;74.628;2022-11-15T17:27:40;6.10;99.90
35746;DHT22;21870;42.812;74.628;2022-11-15T17:30:12;6.20;99.90
35746;DHT22;21870;42.812;74.628;2022-11-15T17:32:40;6.30;99.90